Time;durP1;ratioP1;P1;durP2;ratioP2;P2;SDS_P1;SDS_P2;PMS_P1;PMS_P2;Temp;Humidity;BMP_temperature;BMP_pressure;BME280_temperature;BME280_humidity;BME280_pressure;Samples;Min_cycle;Max_cycle;Signal;HPM_P1;HPM_P2
2023/12/18 00:02:44;;;;;;;23.90;16.40;;;;;;;3.23;88.24;100254.55;226590;1272;22540;-73
2023/12/18 00:07:47;;;;;;;25.40;16.00;;;;;;;3.22;88.19;100251.98;226507;1273;22543;-73
2023/12/18 00:12:49;;;;;;;21.80;14.80;;;;;;;3.20;88.05;100247.45;226303;1274;25377;-73
2023/12/18 00:17:51;;;;;;;21.50;15.80;;;;;;;3.18;88.33;100248.23;226518;1273;22985;-74
2023/12/18 00:22:54;;;;;;;25.70;15.60;;;;;;;3.17;88.16;100242.06;226461;1270;22549;-72
2023/12/18 00:27:56;;;;;;;23.30;15.30;;;;;;;3.13;87.99;100235.33;226492;1273;23016;-72
2023/12/18 00:32:58;;;;;;;26.30;17.20;;;;;;;3.11;88.15;100228.89;226565;1269;22539;-72
2023/12/18 00:38:00;;;;;;;26.50;16.60;;;;;;;3.07;88.16;100228.84;226424;1272;22570;-74
2023/12/18 00:43:06;;;;;;;27.30;15.90;;;;;;;3.04;88.20;100225.75;226464;1273;24284;-72
2023/12/18 00:48:08;;;;;;;23.60;14.20;;;;;;;3.01;88.32;100219.65;226465;1251;22567;-74
2023/12/18 00:53:10;;;;;;;27.00;17.40;;;;;;;2.99;88.43;100210.58;226533;1272;22580;-73
2023/12/18 00:58:12;;;;;;;23.70;16.00;;;;;;;2.95;88.46;100212.43;226478;1271;22586;-72
2023/12/18 01:03:14;;;;;;;27.90;18.70;;;;;;;2.90;88.43;100210.48;226569;1272;22530;-73
2023/12/18 01:08:17;;;;;;;26.90;17.50;;;;;;;2.86;88.59;100206.27;226377;1273;22536;-72
2023/12/18 01:13:19;;;;;;;23.20;15.70;;;;;;;2.83;88.52;100198.45;226456;1272;22596;-73
2023/12/18 01:18:21;;;;;;;28.80;16.60;;;;;;;2.83;88.82;100198.98;226437;1272;23655;-73
2023/12/18 01:23:24;;;;;;;21.90;14.00;;;;;;;2.83;89.00;100191.29;226452;1273;23278;-73
2023/12/18 01:28:26;;;;;;;20.10;13.90;;;;;;;2.83;88.96;100183.16;226403;1273;22567;-72
2023/12/18 01:33:28;;;;;;;21.10;13.60;;;;;;;2.81;88.73;100173.88;226437;1272;22524;-73
2023/12/18 01:38:31;;;;;;;21.80;13.40;;;;;;;2.81;88.72;100176.11;226551;1273;22581;-73
2023/12/18 01:43:33;;;;;;;19.10;13.20;;;;;;;2.80;88.79;100171.02;226437;1272;22536;-72
2023/12/18 01:48:35;;;;;;;22.10;14.30;;;;;;;2.78;88.92;100166.77;226495;1269;25260;-73
2023/12/18 01:53:49;;;;;;;22.70;14.40;;;;;;;2.76;88.71;100151.98;226408;1272;22552;-72
2023/12/18 01:58:53;;;;;;;20.30;14.60;;;;;;;2.73;88.91;100149.94;226338;1273;23319;-72
2023/12/18 02:03:56;;;;;;;19.00;12.10;;;;;;;2.71;89.06;100144.63;226503;1272;22541;-75
2023/12/18 02:08:58;;;;;;;20.70;13.30;;;;;;;2.71;89.19;100146.02;226468;1272;22544;-75
2023/12/18 02:14:01;;;;;;;17.20;12.20;;;;;;;2.71;88.95;100145.90;226518;1272;22654;-72
2023/12/18 02:19:03;;;;;;;18.40;12.40;;;;;;;2.71;89.06;100146.06;226449;1270;25290;-73
2023/12/18 02:24:05;;;;;;;21.00;13.20;;;;;;;2.71;89.07;100141.89;226377;1272;22534;-73
2023/12/18 02:29:07;;;;;;;18.40;12.70;;;;;;;2.68;89.04;100133.69;226427;1273;24265;-74
2023/12/18 02:34:09;;;;;;;19.30;12.90;;;;;;;2.64;89.05;100127.93;226484;1272;22612;-75
2023/12/18 02:39:11;;;;;;;18.30;12.10;;;;;;;2.59;88.98;100121.80;226468;1272;22537;-73
2023/12/18 02:44:13;;;;;;;17.60;12.10;;;;;;;2.54;88.97;100117.64;226486;1272;22552;-72
2023/12/18 02:49:15;;;;;;;19.80;12.80;;;;;;;2.51;88.81;100123.81;226492;1272;22587;-72
2023/12/18 02:54:17;;;;;;;18.50;12.40;;;;;;;2.47;89.04;100133.45;226554;1269;22541;-73
2023/12/18 02:59:19;;;;;;;18.70;12.40;;;;;;;2.43;89.17;100124.26;226622;1266;22537;-73
2023/12/18 03:04:21;;;;;;;17.90;11.50;;;;;;;2.40;89.05;100123.27;226523;1272;22544;-73
2023/12/18 03:09:24;;;;;;;16.00;11.40;;;;;;;2.39;89.06;100118.84;226510;1254;22547;-73
2023/12/18 03:14:26;;;;;;;15.90;11.60;;;;;;;2.35;89.31;100114.58;226357;1273;24258;-73
2023/12/18 03:19:28;;;;;;;15.80;11.60;;;;;;;2.33;89.29;100111.25;226474;1272;22912;-72
2023/12/18 03:24:30;;;;;;;17.00;11.20;;;;;;;2.32;89.17;100108.36;226528;1271;22557;-73
2023/12/18 03:29:32;;;;;;;14.70;10.90;;;;;;;2.34;89.34;100111.36;226523;1273;22553;-72
2023/12/18 03:34:34;;;;;;;17.80;12.00;;;;;;;2.39;89.82;100110.86;226441;1273;22631;-73
2023/12/18 03:39:36;;;;;;;15.70;11.30;;;;;;;2.43;89.89;100115.27;226403;1272;22536;-73
2023/12/18 03:44:38;;;;;;;18.80;12.50;;;;;;;2.44;89.62;100118.80;226451;1273;23097;-73
2023/12/18 03:49:40;;;;;;;22.00;12.90;;;;;;;2.45;89.68;100115.63;226428;1272;23292;-73
2023/12/18 03:54:43;;;;;;;17.90;13.60;;;;;;;2.44;89.45;100118.13;226499;1272;22617;-73
2023/12/18 03:59:45;;;;;;;18.20;13.90;;;;;;;2.43;89.54;100122.88;226425;1274;24150;-73
2023/12/18 04:04:47;;;;;;;20.30;14.00;;;;;;;2.42;89.48;100117.40;226452;1272;22546;-73
2023/12/18 04:09:49;;;;;;;18.60;13.70;;;;;;;2.37;89.22;100123.34;226445;1273;25278;-74
2023/12/18 04:14:51;;;;;;;21.90;14.10;;;;;;;2.29;89.40;100129.95;226450;1273;22610;-72
2023/12/18 04:19:53;;;;;;;22.50;15.20;;;;;;;2.19;89.53;100118.48;226458;1274;22577;-72
2023/12/18 04:24:56;;;;;;;22.90;14.30;;;;;;;2.15;89.56;100117.00;226379;1272;22548;-73
2023/12/18 04:29:58;;;;;;;22.00;15.20;;;;;;;2.16;89.74;100120.41;226478;1272;22609;-72
2023/12/18 04:35:00;;;;;;;21.70;14.90;;;;;;;2.21;89.80;100118.88;226448;1273;25428;-73
2023/12/18 04:40:03;;;;;;;20.80;14.20;;;;;;;2.24;89.70;100117.05;226427;1272;22561;-74
2023/12/18 04:45:06;;;;;;;20.20;14.10;;;;;;;2.21;89.63;100122.82;226381;1274;25322;-74
2023/12/18 04:50:08;;;;;;;22.30;15.80;;;;;;;2.19;89.68;100122.13;226735;1271;22533;-73
2023/12/18 04:55:10;;;;;;;23.30;18.40;;;;;;;2.16;89.45;100128.92;226449;1273;22579;-73
2023/12/18 05:00:12;;;;;;;20.90;15.20;;;;;;;2.16;89.76;100146.64;226349;1274;22533;-74
2023/12/18 05:05:14;;;;;;;16.30;11.40;;;;;;;2.14;89.66;100145.03;226318;1272;22533;-74
2023/12/18 05:10:16;;;;;;;16.60;11.70;;;;;;;2.15;90.04;100144.43;226462;1272;22527;-73
2023/12/18 05:15:18;;;;;;;19.00;11.90;;;;;;;2.17;89.77;100147.45;226405;1256;22552;-74
2023/12/18 05:20:20;;;;;;;18.70;12.80;;;;;;;2.15;89.73;100146.38;226384;1271;24300;-74
2023/12/18 05:25:22;;;;;;;15.90;11.80;;;;;;;2.11;89.58;100139.14;226417;1263;22571;-73
2023/12/18 05:30:24;;;;;;;16.50;10.90;;;;;;;2.10;89.92;100138.27;226453;1272;22566;-72
2023/12/18 05:35:27;;;;;;;17.50;12.00;;;;;;;2.14;89.83;100142.25;226433;1273;24282;-72
2023/12/18 05:40:29;;;;;;;17.80;11.50;;;;;;;2.13;89.66;100153.08;226355;1272;22556;-74
2023/12/18 05:45:32;;;;;;;15.70;10.00;;;;;;;2.12;89.92;100145.16;226499;1272;22559;-73
2023/12/18 05:50:34;;;;;;;22.90;14.10;;;;;;;2.10;89.54;100140.07;226417;1272;22555;-74
2023/12/18 05:55:36;;;;;;;18.70;12.60;;;;;;;2.09;89.67;100143.80;226310;1273;23455;-73
2023/12/18 06:00:38;;;;;;;23.20;14.00;;;;;;;2.08;89.77;100149.03;226423;1272;22583;-73
2023/12/18 06:05:40;;;;;;;24.10;15.30;;;;;;;2.07;89.72;100148.46;226399;1273;22912;-73
2023/12/18 06:10:42;;;;;;;24.20;14.50;;;;;;;2.04;89.57;100150.91;226320;1271;22548;-73
2023/12/18 06:15:44;;;;;;;25.00;15.40;;;;;;;2.04;89.83;100162.36;226365;1274;22540;-73
2023/12/18 06:20:46;;;;;;;27.90;17.70;;;;;;;2.06;89.64;100159.62;226382;1272;22528;-73
2023/12/18 06:25:48;;;;;;;30.40;20.20;;;;;;;2.06;89.93;100150.41;226472;1272;22554;-75
2023/12/18 06:30:50;;;;;;;27.50;18.70;;;;;;;2.05;89.94;100148.39;226393;1273;22879;-73
2023/12/18 06:35:53;;;;;;;29.20;20.30;;;;;;;2.05;89.81;100147.37;226311;1256;22540;-74
2023/12/18 06:40:56;;;;;;;24.90;16.50;;;;;;;2.05;89.87;100138.16;226216;1261;23634;-73
2023/12/18 06:45:59;;;;;;;28.30;17.90;;;;;;;2.08;89.99;100139.29;226347;1272;22540;-72
2023/12/18 06:51:01;;;;;;;27.60;18.40;;;;;;;2.12;90.04;100138.69;226295;1263;22975;-73
2023/12/18 06:56:03;;;;;;;26.60;17.60;;;;;;;2.18;90.05;100134.68;226355;1272;23053;-73
2023/12/18 07:01:06;;;;;;;31.40;20.20;;;;;;;2.23;90.00;100134.20;226144;1256;22510;-73
2023/12/18 07:06:08;;;;;;;26.20;17.40;;;;;;;2.28;89.83;100138.19;225872;1254;22548;-74
2023/12/18 07:11:10;;;;;;;29.00;19.80;;;;;;;2.32;89.90;100138.29;226070;1254;22545;-73
2023/12/18 07:16:22;;;;;;;28.80;21.80;;;;;;;2.35;89.83;100145.70;225987;1257;22527;-73
2023/12/18 07:21:24;;;;;;;26.80;18.90;;;;;;;2.40;89.68;100138.58;227911;1256;24859;-73
2023/12/18 07:26:26;;;;;;;25.40;18.10;;;;;;;2.47;89.57;100137.45;225886;1254;22569;-72
2023/12/18 07:31:28;;;;;;;25.60;16.10;;;;;;;2.54;89.77;100139.03;225944;1271;22718;-71
2023/12/18 07:36:35;;;;;;;24.20;15.50;;;;;;;2.64;89.60;100147.05;225863;1254;25411;-72
2023/12/18 07:41:37;;;;;;;23.10;14.40;;;;;;;2.74;89.56;100160.09;225616;1255;25332;-73
2023/12/18 07:46:39;;;;;;;24.30;14.90;;;;;;;2.84;89.47;100162.38;225821;1260;22549;-72
2023/12/18 07:51:41;;;;;;;22.00;14.10;;;;;;;2.98;89.57;100159.66;225946;1272;22548;-71
2023/12/18 07:56:44;;;;;;;17.80;12.60;;;;;;;3.12;89.45;100162.34;225980;1263;22541;-71
2023/12/18 08:01:46;;;;;;;22.90;14.20;;;;;;;3.26;89.40;100166.08;226053;1267;22523;-72
2023/12/18 08:06:51;;;;;;;21.40;13.50;;;;;;;3.39;89.35;100163.55;225970;1260;26120;-72
2023/12/18 08:11:54;;;;;;;23.70;13.70;;;;;;;3.69;90.04;100154.95;226113;1257;23016;-74
2023/12/18 08:16:56;;;;;;;17.50;13.00;;;;;;;4.23;89.79;100148.38;226024;1262;22623;-74
2023/12/18 08:21:58;;;;;;;22.90;13.00;;;;;;;4.32;88.64;100138.64;226017;1256;22545;-74
2023/12/18 08:27:00;;;;;;;21.10;13.50;;;;;;;4.36;88.24;100132.05;226178;1263;22538;-74
2023/12/18 08:32:02;;;;;;;21.90;14.50;;;;;;;4.45;87.95;100122.34;226178;1256;24241;-74
2023/12/18 08:37:05;;;;;;;23.30;15.00;;;;;;;4.54;87.58;100121.24;226125;1254;25271;-75
2023/12/18 08:42:09;;;;;;;23.80;14.30;;;;;;;4.67;88.07;100124.63;226104;1257;22534;-74
2023/12/18 08:47:11;;;;;;;22.20;14.30;;;;;;;4.79;87.67;100120.20;226129;1260;22542;-75
2023/12/18 08:52:13;;;;;;;18.60;12.30;;;;;;;4.94;87.53;100120.98;225958;1256;22603;-75
2023/12/18 08:57:15;;;;;;;19.80;12.90;;;;;;;5.10;86.94;100115.67;226018;1272;22555;-75
2023/12/18 09:02:17;;;;;;;18.70;12.30;;;;;;;5.28;87.17;100111.63;225732;1255;23037;-76
2023/12/18 09:07:19;;;;;;;18.50;11.30;;;;;;;5.43;87.12;100103.64;225677;1269;22593;-77
2023/12/18 09:12:22;;;;;;;15.00;10.30;;;;;;;5.64;86.48;100101.61;225815;1274;22865;-75
2023/12/18 09:17:24;;;;;;;15.80;9.90;;;;;;;5.89;86.25;100104.94;225943;1258;22605;-76
2023/12/18 09:22:26;;;;;;;14.50;9.60;;;;;;;6.06;85.95;100100.47;225956;1273;23069;-76
2023/12/18 09:27:28;;;;;;;13.50;9.40;;;;;;;6.18;85.25;100099.96;226205;1275;22703;-73
2023/12/18 09:32:30;;;;;;;13.90;10.00;;;;;;;6.29;84.37;100101.16;226237;1256;22624;-72
2023/12/18 09:37:33;;;;;;;17.00;10.20;;;;;;;6.36;84.26;100098.04;226074;1270;22565;-74
2023/12/18 09:42:35;;;;;;;15.40;10.00;;;;;;;6.45;83.95;100092.09;226095;1261;24403;-74
2023/12/18 09:47:37;;;;;;;13.90;9.30;;;;;;;6.54;83.77;100089.58;225989;1255;22512;-73
2023/12/18 09:52:45;;;;;;;14.80;10.20;;;;;;;6.66;84.17;100088.11;226018;1252;22481;-73
2023/12/18 09:57:50;;;;;;;13.00;9.30;;;;;;;6.80;83.77;100085.64;225930;1257;22550;-75
2023/12/18 10:02:58;;;;;;;14.30;9.30;;;;;;;6.92;83.62;100088.05;226111;1257;22690;-73
2023/12/18 10:08:01;;;;;;;13.30;9.80;;;;;;;7.04;83.15;100080.83;226200;1255;22567;-73
2023/12/18 10:13:06;;;;;;;13.50;9.30;;;;;;;7.17;82.41;100072.94;225981;1251;25308;-76
2023/12/18 10:18:13;;;;;;;15.00;9.30;;;;;;;7.27;81.60;100057.63;225859;1261;24250;-75
2023/12/18 10:23:19;;;;;;;13.40;9.30;;;;;;;7.41;82.15;100052.31;225961;1258;22551;-75
2023/12/18 10:28:21;;;;;;;12.00;9.20;;;;;;;7.57;81.69;100056.87;225960;1269;22709;-73
2023/12/18 10:33:27;;;;;;;12.80;9.00;;;;;;;7.67;80.73;100059.52;225824;1271;22568;-77
2023/12/18 10:38:30;;;;;;;15.30;9.50;;;;;;;7.74;80.78;100053.16;225892;1274;22591;-73
2023/12/18 10:43:35;;;;;;;10.30;8.00;;;;;;;7.86;80.87;100045.13;225820;1254;22541;-75
2023/12/18 10:48:37;;;;;;;12.60;8.80;;;;;;;7.96;80.19;100037.73;225881;1267;22537;-75
2023/12/18 10:53:41;;;;;;;12.90;8.70;;;;;;;8.04;79.95;100029.90;225839;1273;22588;-75
2023/12/18 10:58:44;;;;;;;10.30;7.20;;;;;;;8.16;79.62;100023.20;225703;1273;22756;-73
2023/12/18 11:03:47;;;;;;;10.10;7.40;;;;;;;8.24;79.31;100023.36;225903;1254;22831;-74
2023/12/18 11:08:50;;;;;;;10.70;7.70;;;;;;;8.31;78.44;100013.05;225837;1274;22571;-74
2023/12/18 11:14:13;;;;;;;11.60;7.80;;;;;;;8.38;78.67;100010.59;226084;1273;22647;-75
2023/12/18 11:19:24;;;;;;;13.00;8.40;;;;;;;8.49;78.48;100000.10;225809;1254;22563;-77
2023/12/18 11:24:35;;;;;;;11.70;7.80;;;;;;;8.59;78.53;99993.75;225809;1275;247292;-75
2023/12/18 11:29:37;;;;;;;12.80;8.00;;;;;;;8.68;78.54;99984.94;225993;1254;22673;-74
2023/12/18 11:34:40;;;;;;;14.50;8.40;;;;;;;8.76;78.35;99985.62;225974;1261;22562;-74
2023/12/18 11:39:46;;;;;;;13.40;8.60;;;;;;;8.86;78.42;99983.41;225777;1251;22651;-73
2023/12/18 11:44:48;;;;;;;10.70;7.90;;;;;;;8.97;78.69;99976.88;226149;1273;22631;-75
2023/12/18 11:49:50;;;;;;;12.30;8.40;;;;;;;9.07;78.78;99973.32;226152;1259;22654;-74
2023/12/18 11:54:53;;;;;;;14.00;8.10;;;;;;;9.15;78.00;99969.71;226024;1273;25423;-76
2023/12/18 11:59:56;;;;;;;13.30;8.10;;;;;;;9.17;77.30;99958.91;226103;1269;24206;-75
2023/12/18 12:04:59;;;;;;;13.90;8.00;;;;;;;9.18;77.07;99951.96;226003;1257;22542;-73
2023/12/18 12:10:01;;;;;;;10.00;7.50;;;;;;;9.24;77.36;99953.04;226228;1267;22570;-74
2023/12/18 12:15:03;;;;;;;16.50;8.60;;;;;;;9.28;76.89;99955.60;226161;1254;22554;-74
2023/12/18 12:20:09;;;;;;;15.10;8.70;;;;;;;9.32;77.05;99958.41;226228;1267;22976;-74
2023/12/18 12:25:11;;;;;;;10.70;7.60;;;;;;;9.37;76.96;99956.96;226290;1273;25354;-75
2023/12/18 12:30:14;;;;;;;11.00;8.50;;;;;;;9.40;76.64;99955.90;225917;1261;23866;-77
2023/12/18 12:35:16;;;;;;;11.70;8.50;;;;;;;9.43;76.53;99962.86;225930;1256;22587;-74
2023/12/18 12:40:19;;;;;;;11.90;8.50;;;;;;;9.48;76.62;99964.86;226021;1252;26401;-74
2023/12/18 12:45:21;;;;;;;14.90;9.20;;;;;;;9.53;76.41;99955.13;225930;1254;22561;-81
2023/12/18 12:50:23;;;;;;;12.00;8.20;;;;;;;9.59;76.16;99952.73;225999;1260;22578;-73
2023/12/18 12:55:25;;;;;;;12.30;8.00;;;;;;;9.61;75.71;99949.63;225924;1251;22550;-73
2023/12/18 13:00:27;;;;;;;14.90;9.10;;;;;;;9.63;75.56;99947.77;225869;1260;22552;-74
2023/12/18 13:05:32;;;;;;;14.90;9.00;;;;;;;9.60;75.68;99950.08;226101;1270;22522;-73
2023/12/18 13:10:34;;;;;;;13.80;8.20;;;;;;;9.61;76.02;99956.16;227589;1261;22568;-73
2023/12/18 13:15:36;;;;;;;12.90;8.20;;;;;;;9.59;76.12;99954.79;226075;1251;22551;-76
2023/12/18 13:20:38;;;;;;;13.10;8.20;;;;;;;9.52;76.03;99957.59;226129;1264;23468;-76
2023/12/18 13:25:41;;;;;;;11.00;7.90;;;;;;;9.42;75.76;99948.77;226099;1260;23140;-74
2023/12/18 13:30:43;;;;;;;11.30;8.00;;;;;;;9.34;75.71;99938.45;226023;1257;22596;-73
2023/12/18 13:35:45;;;;;;;12.80;8.20;;;;;;;9.25;75.41;99934.57;225875;1254;22560;-76
2023/12/18 13:40:47;;;;;;;12.50;7.70;;;;;;;9.16;75.33;99946.00;226109;1267;23018;-72
2023/12/18 13:45:49;;;;;;;13.90;7.80;;;;;;;9.07;75.02;99943.59;226057;1256;22579;-74
2023/12/18 13:50:51;;;;;;;13.50;8.10;;;;;;;8.96;74.82;99944.14;226189;1261;22567;-74
2023/12/18 13:55:53;;;;;;;13.60;8.40;;;;;;;8.82;74.94;99938.13;226083;1261;22653;-80
2023/12/18 14:00:56;;;;;;;12.90;8.70;;;;;;;8.67;75.11;99947.98;226083;1251;22649;-74
2023/12/18 14:05:58;;;;;;;14.70;8.50;;;;;;;8.53;75.17;99954.65;226053;1253;22580;-76
2023/12/18 14:11:01;;;;;;;11.20;7.80;;;;;;;8.37;75.31;99957.55;225925;1253;22608;-74
2023/12/18 14:16:03;;;;;;;14.20;8.80;;;;;;;8.20;75.33;99959.30;225914;1269;22583;-75
2023/12/18 14:21:08;;;;;;;17.40;10.40;;;;;;;8.03;75.69;99952.34;225960;1256;23043;-79
2023/12/18 14:26:14;;;;;;;18.10;11.60;;;;;;;7.81;75.51;99944.36;225910;1259;25271;-80
2023/12/18 14:31:16;;;;;;;22.30;11.90;;;;;;;7.57;75.93;99952.42;225933;1250;22590;-74
2023/12/18 14:36:19;;;;;;;15.30;10.90;;;;;;;7.34;76.02;99954.82;225957;1260;22571;-72
2023/12/18 14:41:21;;;;;;;15.20;9.20;;;;;;;7.12;75.79;99959.64;226040;1250;25396;-74
2023/12/18 14:46:23;;;;;;;13.80;9.50;;;;;;;6.89;76.17;99958.50;226061;1253;24264;-78
2023/12/18 14:51:26;;;;;;;12.80;8.90;;;;;;;6.69;76.23;99955.77;226036;1256;22609;-74
2023/12/18 14:56:29;;;;;;;14.00;9.40;;;;;;;6.50;76.48;99956.88;226049;1251;22581;-75
2023/12/18 15:01:40;;;;;;;15.10;10.20;;;;;;;6.35;76.45;99959.26;225725;1271;22551;-74
2023/12/18 15:06:44;;;;;;;14.20;9.50;;;;;;;6.22;76.72;99956.69;225646;1256;22553;-75
2023/12/18 15:11:47;;;;;;;16.70;10.20;;;;;;;6.11;76.89;99954.83;225789;1260;22557;-74
2023/12/18 15:16:49;;;;;;;18.30;12.30;;;;;;;6.01;77.19;99964.91;225808;1273;22608;-75
2023/12/18 15:21:51;;;;;;;21.10;13.20;;;;;;;5.93;77.52;99969.84;226020;1273;22926;-75
2023/12/18 15:26:53;;;;;;;17.40;10.60;;;;;;;5.85;77.63;99966.80;226489;1270;25454;-75
2023/12/18 15:31:56;;;;;;;19.70;11.20;;;;;;;5.75;77.59;99953.35;226537;1272;22537;-75
2023/12/18 15:36:58;;;;;;;18.90;12.20;;;;;;;5.62;77.78;99947.06;226519;1269;22967;-74
2023/12/18 15:42:00;;;;;;;19.10;12.40;;;;;;;5.52;77.99;99948.23;226582;1269;23406;-76
2023/12/18 15:47:03;;;;;;;20.40;13.20;;;;;;;5.43;77.85;99941.16;226325;1274;23642;-75
2023/12/18 15:52:05;;;;;;;26.50;17.40;;;;;;;5.36;78.07;99940.90;226604;1269;22546;-74
2023/12/18 15:57:07;;;;;;;23.40;14.10;;;;;;;5.31;78.50;99944.73;226675;1271;22555;-75
2023/12/18 16:02:09;;;;;;;21.40;14.00;;;;;;;5.30;78.81;99946.43;226567;1272;22560;-74
2023/12/18 16:07:12;;;;;;;24.50;14.20;;;;;;;5.30;78.72;99946.94;226381;1275;22571;-74
2023/12/18 16:12:18;;;;;;;22.60;13.40;;;;;;;5.31;79.04;99946.51;226392;1273;22690;-75
2023/12/18 16:17:20;;;;;;;23.50;14.00;;;;;;;5.32;78.53;99954.98;226593;1275;22540;-74
2023/12/18 16:22:24;;;;;;;23.30;13.20;;;;;;;5.33;78.73;99956.02;226645;1272;25027;-75
2023/12/18 16:27:26;;;;;;;20.90;13.90;;;;;;;5.31;78.89;99951.39;226547;1272;22546;-75
2023/12/18 16:32:29;;;;;;;24.90;15.60;;;;;;;5.28;78.85;99957.78;226413;1273;22566;-74
2023/12/18 16:37:31;;;;;;;27.00;17.20;;;;;;;5.26;79.06;99960.90;226620;1272;22592;-74
2023/12/18 16:42:33;;;;;;;25.70;16.20;;;;;;;5.25;79.32;99956.38;226359;1273;22554;-74
2023/12/18 16:47:35;;;;;;;30.40;18.60;;;;;;;5.25;79.00;99951.38;226620;1272;22551;-74
2023/12/18 16:52:37;;;;;;;29.20;18.80;;;;;;;5.24;78.92;99942.88;226371;1273;25892;-75
2023/12/18 16:57:39;;;;;;;27.80;18.50;;;;;;;5.24;79.02;99940.95;226551;1272;22709;-75
2023/12/18 17:02:41;;;;;;;33.90;20.40;;;;;;;5.25;79.34;99940.70;226600;1272;22570;-73
2023/12/18 17:07:44;;;;;;;29.60;19.30;;;;;;;5.26;79.56;99918.64;226555;1272;25255;-75
2023/12/18 17:12:47;;;;;;;31.40;17.90;;;;;;;5.26;79.35;99917.39;226622;1271;22575;-75
2023/12/18 17:17:48;;;;;;;30.00;18.60;;;;;;;5.25;79.40;99909.24;226573;1272;22547;-74
2023/12/18 17:22:51;;;;;;;29.30;17.80;;;;;;;5.25;79.09;99902.48;226524;1274;24244;-75
2023/12/18 17:27:53;;;;;;;27.90;17.10;;;;;;;5.23;79.41;99910.30;226566;1272;22558;-74
2023/12/18 17:32:56;;;;;;;25.50;17.10;;;;;;;5.22;79.33;99909.98;226412;1273;23270;-73
2023/12/18 17:37:58;;;;;;;27.80;17.90;;;;;;;5.21;79.44;99908.33;226696;1272;22543;-74
2023/12/18 17:43:00;;;;;;;31.40;19.40;;;;;;;5.19;79.39;99903.11;226496;1273;22566;-76
2023/12/18 17:48:03;;;;;;;31.60;19.60;;;;;;;5.19;79.28;99893.38;226482;1273;23050;-73
2023/12/18 17:53:06;;;;;;;32.10;18.80;;;;;;;5.18;79.32;99896.73;226463;1273;22548;-73
2023/12/18 17:58:08;;;;;;;34.10;20.20;;;;;;;5.17;78.99;99886.86;226584;1272;22560;-74
2023/12/18 18:03:12;;;;;;;32.10;19.30;;;;;;;5.15;79.24;99886.17;226529;1272;22537;-75
2023/12/18 18:08:14;;;;;;;29.80;18.60;;;;;;;5.13;79.21;99886.48;226425;1273;22544;-74
2023/12/18 18:13:16;;;;;;;29.80;18.30;;;;;;;5.12;79.21;99888.38;226549;1273;22577;-74
2023/12/18 18:18:19;;;;;;;28.60;17.10;;;;;;;5.11;79.57;99889.14;226561;1269;24536;-73
2023/12/18 18:23:22;;;;;;;29.60;16.70;;;;;;;5.08;78.99;99886.42;226581;1272;22562;-74
2023/12/18 18:28:24;;;;;;;31.50;18.80;;;;;;;5.05;79.38;99882.47;226365;1273;22661;-73
2023/12/18 18:33:27;;;;;;;28.30;18.10;;;;;;;5.03;79.47;99885.48;226632;1272;22568;-74
2023/12/18 18:38:29;;;;;;;27.50;17.30;;;;;;;5.01;79.53;99888.95;226567;1272;22646;-74
2023/12/18 18:43:31;;;;;;;25.10;15.90;;;;;;;4.97;79.38;99891.29;226399;1273;22569;-74
2023/12/18 18:48:34;;;;;;;27.00;16.90;;;;;;;4.94;79.22;99887.88;226575;1251;23655;-74
2023/12/18 18:53:37;;;;;;;31.80;18.70;;;;;;;4.91;79.15;99889.14;226454;1273;22547;-74
2023/12/18 18:58:40;;;;;;;26.00;16.40;;;;;;;4.89;79.35;99890.76;226481;1270;22596;-74
2023/12/18 19:03:42;;;;;;;26.20;15.60;;;;;;;4.85;79.00;99884.60;226479;1275;22541;-74
2023/12/18 19:08:44;;;;;;;25.30;16.00;;;;;;;4.82;79.69;99878.09;226409;1274;22580;-73
2023/12/18 19:13:46;;;;;;;28.00;17.40;;;;;;;4.80;79.43;99874.43;226405;1269;22548;-75
2023/12/18 19:18:48;;;;;;;25.70;16.90;;;;;;;4.75;79.37;99866.95;226584;1272;22539;-74
2023/12/18 19:23:51;;;;;;;34.50;20.70;;;;;;;4.71;79.53;99861.19;226545;1269;25093;-74
2023/12/18 19:28:53;;;;;;;39.10;23.40;;;;;;;4.67;79.62;99853.10;226452;1273;22544;-73
2023/12/18 19:33:55;;;;;;;40.00;23.80;;;;;;;4.64;79.64;99846.59;226508;1263;22552;-74
2023/12/18 19:38:57;;;;;;;40.00;23.10;;;;;;;4.60;79.73;99843.86;226286;1275;25274;-74
2023/12/18 19:43:59;;;;;;;38.10;22.30;;;;;;;4.59;79.82;99842.96;226443;1272;22546;-74
2023/12/18 19:49:01;;;;;;;37.60;21.10;;;;;;;4.59;79.84;99832.98;226496;1272;22568;-74
2023/12/18 19:54:05;;;;;;;33.30;19.50;;;;;;;4.61;79.90;99829.17;226524;1272;22536;-73
2023/12/18 19:59:07;;;;;;;30.40;19.00;;;;;;;4.60;79.86;99819.23;226607;1269;22535;-75
2023/12/18 20:04:10;;;;;;;28.80;17.00;;;;;;;4.61;80.13;99814.33;226520;1275;25262;-73
2023/12/18 20:09:13;;;;;;;28.00;17.00;;;;;;;4.60;79.92;99804.44;226381;1273;26013;-74
2023/12/18 20:14:15;;;;;;;28.40;17.30;;;;;;;4.60;80.08;99798.54;226606;1269;22547;-75
2023/12/18 20:19:17;;;;;;;34.80;21.30;;;;;;;4.58;80.04;99792.27;226612;1269;22539;-74
2023/12/18 20:24:19;;;;;;;32.30;19.90;;;;;;;4.55;79.97;99785.98;226604;1275;22551;-74
2023/12/18 20:29:21;;;;;;;35.60;20.70;;;;;;;4.52;79.98;99781.90;226365;1272;22548;-75
2023/12/18 20:34:25;;;;;;;35.40;22.30;;;;;;;4.51;80.11;99777.66;226516;1269;22566;-72
2023/12/18 20:39:27;;;;;;;39.80;21.90;;;;;;;4.48;79.98;99767.56;226551;1272;22566;-72
2023/12/18 20:44:29;;;;;;;34.20;20.30;;;;;;;4.45;80.07;99756.14;226605;1272;23287;-73
2023/12/18 20:49:31;;;;;;;32.60;18.50;;;;;;;4.44;80.27;99762.70;226559;1269;23622;-73
2023/12/18 20:54:34;;;;;;;27.80;16.80;;;;;;;4.45;80.19;99765.56;226538;1269;22570;-72
2023/12/18 20:59:38;;;;;;;28.90;16.50;;;;;;;4.47;80.46;99763.26;226412;1275;22536;-73
2023/12/18 21:04:43;;;;;;;29.10;15.50;;;;;;;4.48;80.28;99751.39;226408;1274;24989;-73
2023/12/18 21:09:45;;;;;;;25.30;15.90;;;;;;;4.48;79.96;99749.44;226379;1274;22571;-73
2023/12/18 21:14:47;;;;;;;23.50;15.10;;;;;;;4.49;80.17;99738.23;226324;1275;22605;-73
2023/12/18 21:19:49;;;;;;;29.20;15.30;;;;;;;4.50;80.35;99737.09;226449;1273;22548;-74
2023/12/18 21:24:51;;;;;;;26.80;14.80;;;;;;;4.50;80.31;99738.14;226494;1272;22688;-74
2023/12/18 21:29:53;;;;;;;25.00;15.40;;;;;;;4.49;80.64;99736.30;226453;1274;22537;-75
2023/12/18 21:34:55;;;;;;;23.50;14.30;;;;;;;4.45;80.37;99728.57;226581;1272;22567;-74
2023/12/18 21:39:57;;;;;;;24.00;15.70;;;;;;;4.43;80.77;99725.31;226504;1273;24771;-74
2023/12/18 21:45:00;;;;;;;22.90;14.60;;;;;;;4.40;80.71;99727.11;226592;1251;22566;-73
2023/12/18 21:50:02;;;;;;;24.10;15.70;;;;;;;4.38;80.54;99726.03;226538;1272;22551;-74
2023/12/18 21:55:04;;;;;;;21.10;14.80;;;;;;;4.39;80.79;99722.11;226578;1272;22554;-74
2023/12/18 22:00:07;;;;;;;24.90;15.00;;;;;;;4.42;80.81;99710.58;226507;1274;22545;-73
2023/12/18 22:05:12;;;;;;;27.50;16.00;;;;;;;4.39;80.69;99709.52;226534;1272;22532;-74
2023/12/18 22:10:14;;;;;;;24.40;16.00;;;;;;;4.34;80.89;99709.06;226411;1275;25344;-75
2023/12/18 22:15:16;;;;;;;29.10;16.20;;;;;;;4.28;80.78;99707.52;226538;1272;23299;-74
2023/12/18 22:20:18;;;;;;;24.20;15.90;;;;;;;4.20;80.87;99709.86;226554;1274;22545;-74
2023/12/18 22:25:20;;;;;;;24.90;15.70;;;;;;;4.14;81.08;99712.70;226588;1269;22546;-74
2023/12/18 22:30:23;;;;;;;25.90;16.10;;;;;;;4.07;81.09;99700.88;226525;1271;22837;-73
2023/12/18 22:35:25;;;;;;;26.80;15.80;;;;;;;4.00;81.02;99702.98;226558;1269;23481;-75
2023/12/18 22:40:27;;;;;;;23.10;15.30;;;;;;;3.93;81.30;99693.98;226382;1273;23022;-73
2023/12/18 22:45:29;;;;;;;23.80;14.80;;;;;;;3.86;81.40;99689.48;226534;1272;22571;-75
2023/12/18 22:50:31;;;;;;;22.90;14.50;;;;;;;3.82;81.59;99682.00;226448;1269;22818;-76
2023/12/18 22:55:34;;;;;;;20.90;13.60;;;;;;;3.81;81.69;99683.83;226504;1269;22729;-73
2023/12/18 23:00:36;;;;;;;21.20;13.90;;;;;;;3.78;82.02;99688.55;226347;1272;22531;-73
2023/12/18 23:05:38;;;;;;;19.30;12.90;;;;;;;3.76;81.53;99689.05;226509;1272;22572;-73